Point Venture, Texas
Current Conditions -  °F | °C
As of 7:55 PM on Friday 24 Oct 2014 (Local Time) from KRYW Reporting Station
Clear Clear  
Wind Chill: 75°   Ceiling: Unl
Heat Index: 75°   Visibility: 10mi
Dew Point: 59°   Wind: 3mph
Humidity: 58%   Direction: 130°SE
Pressure: 30.13"   Gusts: NA
Location:  30.4521°N, 97.9683°W
Report Text: KRYW 250055Z AUTO 13003KT 10SM CLR 24/15 A3013 RMK AO2 T02400152
Loading
Personal Weather Stations






























Interactive Weather Map
Tropical Storm Tracking
New forecast layout! Learn more

10-Day Weather Forecast

Advertisements
Track Severe Weather on mobile